Time;durP1;ratioP1;P1;durP2;ratioP2;P2;SDS_P1;SDS_P2;PMS_P1;PMS_P2;Temp;Humidity;BMP_temperature;BMP_pressure;BME280_temperature;BME280_humidity;BME280_pressure;Samples;Min_cycle;Max_cycle;Signal;HPM_P1;HPM_P2
2022/03/18 00:01:11;;;;;;;11.75;3.90;;;;;;;;;;5034577;28;20041;-82
2022/03/18 00:03:36;;;;;;;9.93;3.97;;;;;;;;;;5023336;28;20017;-81
2022/03/18 00:06:01;;;;;;;9.32;3.47;;;;;;;;;;5028825;28;20096;-82
2022/03/18 00:08:27;;;;;;;11.35;3.88;;;;;;;;;;5033689;28;20017;-81
2022/03/18 00:10:52;;;;;;;9.43;3.67;;;;;;;;;;5033344;28;20033;-80
2022/03/18 00:13:17;;;;;;;11.25;3.30;;;;;;;;;;5033409;28;20565;-82
2022/03/18 00:15:43;;;;;;;8.20;2.78;;;;;;;;;;5032016;28;20531;-80
2022/03/18 00:18:08;;;;;;;7.97;2.92;;;;;;;;;;5033358;28;20057;-83
2022/03/18 00:20:33;;;;;;;11.27;3.50;;;;;;;;;;5024257;28;20014;-80
2022/03/18 00:22:58;;;;;;;12.02;3.13;;;;;;;;;;5027080;28;20501;-83
2022/03/18 00:25:23;;;;;;;7.80;2.72;;;;;;;;;;5013059;28;20488;-82
2022/03/18 00:27:49;;;;;;;9.50;3.30;;;;;;;;;;5013452;28;20149;-84
2022/03/18 00:30:16;;;;;;;8.55;2.90;;;;;;;;;;5013881;28;20487;-88
2022/03/18 00:32:42;;;;;;;11.95;3.13;;;;;;;;;;5014143;28;20105;-87
2022/03/18 00:35:10;;;;;;;7.82;2.60;;;;;;;;;;5013936;28;20101;-87
2022/03/18 00:37:36;;;;;;;6.43;2.58;;;;;;;;;;5019258;28;20427;-84
2022/03/18 00:40:01;;;;;;;12.52;2.90;;;;;;;;;;5026947;28;20067;-87
2022/03/18 00:42:27;;;;;;;11.82;3.35;;;;;;;;;;5032370;28;20068;-86
2022/03/18 00:44:52;;;;;;;7.97;2.60;;;;;;;;;;5032601;28;20018;-83
2022/03/18 00:52:46;;;;;;;11.32;3.20;;;;;;;;;;5030184;28;20032;-84
2022/03/18 00:55:11;;;;;;;6.65;2.42;;;;;;;;;;5019449;28;20025;-82
2022/03/18 00:57:37;;;;;;;8.18;2.65;;;;;;;;;;5031168;28;20021;-81
2022/03/18 01:00:03;;;;;;;13.50;3.40;;;;;;;;;;5032153;28;20045;-82
2022/03/18 01:02:28;;;;;;;9.80;2.58;;;;;;;;;;5034727;28;20524;-88
2022/03/18 01:04:53;;;;;;;10.68;2.67;;;;;;;;;;5033077;28;20029;-89
2022/03/18 01:07:18;;;;;;;13.30;2.83;;;;;;;;;;5037915;28;20017;-89
2022/03/18 01:09:44;;;;;;;8.18;2.60;;;;;;;;;;5037725;28;20018;-86
2022/03/18 01:12:09;;;;;;;7.40;2.15;;;;;;;;;;5022462;28;20073;-87
2022/03/18 01:14:34;;;;;;;9.35;2.80;;;;;;;;;;5034319;28;20156;-88
2022/03/18 01:17:00;;;;;;;10.65;3.05;;;;;;;;;;5037779;28;20022;-87
2022/03/18 01:19:25;;;;;;;8.85;2.90;;;;;;;;;;5037447;28;20018;-86
2022/03/18 01:21:50;;;;;;;8.63;2.80;;;;;;;;;;5045159;28;20017;-86
2022/03/18 01:24:16;;;;;;;7.78;2.55;;;;;;;;;;5053952;28;20014;-82
2022/03/18 01:26:41;;;;;;;9.50;2.72;;;;;;;;;;5052377;28;20006;-86
2022/03/18 01:29:06;;;;;;;8.00;2.42;;;;;;;;;;5044371;28;20050;-84
2022/03/18 01:31:32;;;;;;;12.77;2.85;;;;;;;;;;5045722;28;20025;-82
2022/03/18 01:33:57;;;;;;;8.82;2.85;;;;;;;;;;5052556;28;20021;-84
2022/03/18 01:36:22;;;;;;;9.35;2.72;;;;;;;;;;5033688;28;20022;-87
2022/03/18 01:38:47;;;;;;;10.65;2.83;;;;;;;;;;5036195;28;20021;-87
2022/03/18 01:41:12;;;;;;;11.82;2.55;;;;;;;;;;5035208;28;20025;-87
2022/03/18 01:43:41;;;;;;;10.45;2.75;;;;;;;;;;5019975;28;20443;-87
2022/03/18 01:46:06;;;;;;;10.32;2.75;;;;;;;;;;5037301;28;20018;-86
2022/03/18 01:48:31;;;;;;;7.45;2.70;;;;;;;;;;5051036;28;20071;-81
2022/03/18 01:50:56;;;;;;;10.73;3.58;;;;;;;;;;5053785;28;20037;-83
2022/03/18 01:53:21;;;;;;;9.90;2.58;;;;;;;;;;5051230;28;20013;-83
2022/03/18 01:55:47;;;;;;;12.07;2.95;;;;;;;;;;5034658;28;20022;-81
2022/03/18 01:58:12;;;;;;;11.27;3.58;;;;;;;;;;5033864;28;20052;-83
2022/03/18 02:00:37;;;;;;;10.43;2.78;;;;;;;;;;5035994;28;20021;-83
2022/03/18 02:03:03;;;;;;;10.90;2.90;;;;;;;;;;5044792;28;20018;-84
2022/03/18 02:05:28;;;;;;;11.80;2.70;;;;;;;;;;5051327;28;20487;-86
2022/03/18 02:07:53;;;;;;;9.15;2.65;;;;;;;;;;5037581;28;20100;-87
2022/03/18 02:10:18;;;;;;;7.35;2.72;;;;;;;;;;5035241;28;20029;-85
2022/03/18 02:12:43;;;;;;;10.93;2.75;;;;;;;;;;5035552;28;20025;-87
2022/03/18 02:15:09;;;;;;;14.02;3.35;;;;;;;;;;5035564;28;20038;-86
2022/03/18 02:17:35;;;;;;;10.60;3.05;;;;;;;;;;5021558;28;20018;-87
2022/03/18 02:20:00;;;;;;;13.93;3.47;;;;;;;;;;5025779;28;20044;-85
2022/03/18 02:22:26;;;;;;;9.40;2.80;;;;;;;;;;5035380;28;20100;-85
2022/03/18 02:24:52;;;;;;;10.77;2.75;;;;;;;;;;5034083;28;20017;-86
2022/03/18 02:27:17;;;;;;;9.55;2.85;;;;;;;;;;5035431;28;20033;-83
2022/03/18 02:29:43;;;;;;;11.60;2.88;;;;;;;;;;5035627;28;20021;-88
2022/03/18 02:32:09;;;;;;;11.32;3.05;;;;;;;;;;5034668;28;20488;-89
2022/03/18 02:34:35;;;;;;;9.20;2.78;;;;;;;;;;5031166;28;20500;-85
2022/03/18 02:37:00;;;;;;;11.18;3.92;;;;;;;;;;5016211;28;20037;-88
2022/03/18 02:39:26;;;;;;;11.07;3.42;;;;;;;;;;5032657;28;20419;-86
2022/03/18 02:41:51;;;;;;;9.25;2.75;;;;;;;;;;5035252;28;20025;-86
2022/03/18 02:44:16;;;;;;;12.73;2.33;;;;;;;;;;5035255;28;20048;-88
2022/03/18 02:46:42;;;;;;;12.07;2.78;;;;;;;;;;5033728;28;20017;-87
2022/03/18 02:49:07;;;;;;;11.57;2.90;;;;;;;;;;5035368;28;20025;-87
2022/03/18 02:51:36;;;;;;;11.52;2.58;;;;;;;;;;5035226;28;20412;-87
2022/03/18 02:54:01;;;;;;;7.90;2.35;;;;;;;;;;5026237;28;20026;-86
2022/03/18 02:56:30;;;;;;;8.95;2.90;;;;;;;;;;5031449;28;20083;-90
2022/03/18 02:58:55;;;;;;;8.40;2.60;;;;;;;;;;5034137;28;20538;-84
2022/03/18 03:01:20;;;;;;;12.80;3.15;;;;;;;;;;5034762;28;20029;-83
2022/03/18 03:03:46;;;;;;;9.32;2.60;;;;;;;;;;5034555;28;20440;-82
2022/03/18 03:08:55;;;;;;;10.88;2.83;;;;;;;;;;5034569;28;20079;-79
2022/03/18 03:11:22;;;;;;;14.40;3.13;;;;;;;;;;5025044;28;20400;-79
2022/03/18 03:13:48;;;;;;;14.20;3.30;;;;;;;;;;5026596;28;20021;-80
2022/03/18 03:16:13;;;;;;;11.05;2.80;;;;;;;;;;5034703;28;20468;-81
2022/03/18 03:18:38;;;;;;;15.43;4.05;;;;;;;;;;5033755;28;20013;-82
2022/03/18 03:21:03;;;;;;;10.02;2.85;;;;;;;;;;5034990;28;20018;-83
2022/03/18 03:23:28;;;;;;;13.48;2.28;;;;;;;;;;5033497;28;20137;-81
2022/03/18 03:25:54;;;;;;;9.15;2.65;;;;;;;;;;5035296;28;20021;-83
2022/03/18 03:28:19;;;;;;;14.93;2.50;;;;;;;;;;5026136;28;20025;-81
2022/03/18 03:30:45;;;;;;;11.60;3.25;;;;;;;;;;5022832;28;20469;-81
2022/03/18 03:33:10;;;;;;;9.20;2.97;;;;;;;;;;5012594;28;20465;-82
2022/03/18 03:35:36;;;;;;;11.65;2.78;;;;;;;;;;5014068;28;20103;-82
2022/03/18 03:38:01;;;;;;;14.40;3.03;;;;;;;;;;5012535;28;20131;-83
2022/03/18 03:40:26;;;;;;;14.63;3.35;;;;;;;;;;5013933;28;20029;-82
2022/03/18 03:42:53;;;;;;;17.55;2.60;;;;;;;;;;5014326;28;20053;-81
2022/03/18 03:45:18;;;;;;;11.68;3.08;;;;;;;;;;5021216;28;20030;-82
2022/03/18 03:47:43;;;;;;;17.70;3.45;;;;;;;;;;5013896;28;20022;-83
2022/03/18 03:50:09;;;;;;;20.23;2.38;;;;;;;;;;5013735;28;20473;-83
2022/03/18 03:52:37;;;;;;;8.20;2.00;;;;;;;;;;5013600;28;20056;-83
2022/03/18 03:55:03;;;;;;;12.80;3.45;;;;;;;;;;5014079;28;20025;-81
2022/03/18 03:57:28;;;;;;;11.38;2.63;;;;;;;;;;5012249;28;20030;-83
2022/03/18 03:59:53;;;;;;;11.38;2.80;;;;;;;;;;5011837;28;20021;-83
2022/03/18 04:02:20;;;;;;;9.35;2.80;;;;;;;;;;5021485;28;20124;-82
2022/03/18 04:04:45;;;;;;;12.48;2.70;;;;;;;;;;5032086;28;20020;-84
2022/03/18 04:07:10;;;;;;;16.70;2.28;;;;;;;;;;5033342;28;20017;-85
2022/03/18 04:09:36;;;;;;;13.65;2.17;;;;;;;;;;5033474;28;20018;-80
2022/03/18 04:12:01;;;;;;;12.57;2.10;;;;;;;;;;5033240;28;20104;-85
2022/03/18 04:14:26;;;;;;;10.93;2.65;;;;;;;;;;5031783;28;20112;-80
2022/03/18 04:16:51;;;;;;;17.83;2.22;;;;;;;;;;5025742;28;20021;-79
2022/03/18 04:19:17;;;;;;;10.70;2.50;;;;;;;;;;5024844;28;20064;-81
2022/03/18 04:21:43;;;;;;;11.82;2.33;;;;;;;;;;5033208;28;20024;-81
2022/03/18 04:24:08;;;;;;;13.52;2.50;;;;;;;;;;5033149;28;20104;-82
2022/03/18 04:26:33;;;;;;;13.68;4.30;;;;;;;;;;5033574;28;20021;-81
2022/03/18 04:28:58;;;;;;;19.38;4.45;;;;;;;;;;5033177;28;20036;-83
2022/03/18 04:31:23;;;;;;;12.70;2.75;;;;;;;;;;5032742;28;20060;-81
2022/03/18 04:33:49;;;;;;;8.43;2.45;;;;;;;;;;5026665;28;20049;-82
2022/03/18 04:36:14;;;;;;;23.88;2.90;;;;;;;;;;5024725;28;20028;-81
2022/03/18 04:38:39;;;;;;;12.45;2.70;;;;;;;;;;5032935;28;20013;-80
2022/03/18 04:41:04;;;;;;;9.85;1.90;;;;;;;;;;5032509;28;20018;-81
2022/03/18 04:43:30;;;;;;;16.90;5.85;;;;;;;;;;5032550;28;20105;-83
2022/03/18 04:45:55;;;;;;;11.52;2.60;;;;;;;;;;5032878;28;20519;-83
2022/03/18 04:48:20;;;;;;;8.27;2.10;;;;;;;;;;5030525;28;20096;-85
2022/03/18 04:50:45;;;;;;;12.85;2.90;;;;;;;;;;5019542;28;20061;-87
2022/03/18 04:53:10;;;;;;;13.25;2.72;;;;;;;;;;5025801;28;20096;-82
2022/03/18 04:55:35;;;;;;;8.40;2.15;;;;;;;;;;5012735;28;20025;-82
2022/03/18 04:58:01;;;;;;;10.93;2.55;;;;;;;;;;5012612;28;20105;-86
2022/03/18 05:00:26;;;;;;;19.30;2.60;;;;;;;;;;5011545;28;20018;-79
2022/03/18 05:02:51;;;;;;;17.77;2.83;;;;;;;;;;5012424;28;20025;-79
2022/03/18 05:05:19;;;;;;;13.43;2.55;;;;;;;;;;5010283;28;20084;-78
2022/03/18 05:07:47;;;;;;;17.23;2.83;;;;;;;;;;5012374;28;20093;-81
2022/03/18 05:10:12;;;;;;;8.35;2.03;;;;;;;;;;5011715;28;20117;-79
2022/03/18 05:12:38;;;;;;;9.77;2.78;;;;;;;;;;5012353;28;20057;-84
2022/03/18 05:15:03;;;;;;;16.27;3.15;;;;;;;;;;5015317;28;20018;-87
2022/03/18 05:17:28;;;;;;;18.27;2.67;;;;;;;;;;5013440;28;20553;-79
2022/03/18 05:19:53;;;;;;;9.77;2.60;;;;;;;;;;5013902;28;20021;-80
2022/03/18 05:22:19;;;;;;;12.70;2.30;;;;;;;;;;5013775;28;20028;-84
2022/03/18 05:24:44;;;;;;;15.23;3.75;;;;;;;;;;5013201;28;20532;-81
2022/03/18 05:27:09;;;;;;;10.57;2.97;;;;;;;;;;5027536;28;20366;-80
2022/03/18 05:29:35;;;;;;;12.32;2.90;;;;;;;;;;5032204;28;20087;-82
2022/03/18 05:32:01;;;;;;;15.38;4.13;;;;;;;;;;5031867;28;20017;-82
2022/03/18 05:34:27;;;;;;;14.88;3.63;;;;;;;;;;5030914;28;20032;-81
2022/03/18 05:36:52;;;;;;;18.08;2.83;;;;;;;;;;5032203;28;20032;-81
2022/03/18 05:39:17;;;;;;;15.48;3.53;;;;;;;;;;5029997;28;20037;-81
2022/03/18 05:41:45;;;;;;;17.92;5.03;;;;;;;;;;5023043;28;20021;-80
2022/03/18 05:44:11;;;;;;;21.20;3.50;;;;;;;;;;5031897;28;20009;-81
2022/03/18 05:46:37;;;;;;;12.70;2.20;;;;;;;;;;5031703;28;20370;-79
2022/03/18 05:49:03;;;;;;;12.95;2.17;;;;;;;;;;5030316;28;20021;-79
2022/03/18 05:51:29;;;;;;;16.05;3.72;;;;;;;;;;5031749;28;20104;-80
2022/03/18 05:53:54;;;;;;;15.23;2.78;;;;;;;;;;5022235;28;20049;-81
2022/03/18 05:59:06;;;;;;;17.63;3.83;;;;;;;;;;5035546;28;20060;-85
2022/03/18 06:01:34;;;;;;;14.38;2.65;;;;;;;;;;5023289;28;20049;-86
2022/03/18 06:04:01;;;;;;;17.63;3.13;;;;;;;;;;5025826;28;20053;-83
2022/03/18 06:06:26;;;;;;;12.82;2.85;;;;;;;;;;5023025;28;20294;-84
2022/03/18 06:11:54;;;;;;;15.48;4.97;;;;;;;;;;5016157;28;20037;-83
2022/03/18 06:14:20;;;;;;;14.77;2.60;;;;;;;;;;5018548;28;20033;-85
2022/03/18 06:16:47;;;;;;;13.68;2.30;;;;;;;;;;5024176;28;20468;-85
2022/03/18 06:19:13;;;;;;;12.02;2.78;;;;;;;;;;5032804;28;20014;-85
2022/03/18 06:21:39;;;;;;;11.55;2.70;;;;;;;;;;5032183;28;20029;-86
2022/03/18 06:24:04;;;;;;;16.63;4.05;;;;;;;;;;5035362;28;20018;-84
2022/03/18 06:26:31;;;;;;;17.00;2.65;;;;;;;;;;5036664;28;20032;-87
2022/03/18 06:28:57;;;;;;;17.33;2.65;;;;;;;;;;5036383;28;20029;-82
2022/03/18 06:31:22;;;;;;;15.82;2.30;;;;;;;;;;5034611;28;20477;-83
2022/03/18 06:33:47;;;;;;;20.25;3.47;;;;;;;;;;5019520;28;20484;-84
2022/03/18 06:36:13;;;;;;;14.90;2.92;;;;;;;;;;5020472;28;20022;-84
2022/03/18 06:38:38;;;;;;;13.60;2.53;;;;;;;;;;5023288;28;20018;-84
2022/03/18 06:41:03;;;;;;;18.20;3.00;;;;;;;;;;5016814;28;20381;-83
2022/03/18 06:43:29;;;;;;;18.77;3.38;;;;;;;;;;5015999;28;20037;-83
2022/03/18 06:45:54;;;;;;;10.50;3.13;;;;;;;;;;5015104;28;20022;-78
2022/03/18 06:48:19;;;;;;;14.77;2.60;;;;;;;;;;5015807;28;20080;-81
2022/03/18 06:50:44;;;;;;;16.13;2.58;;;;;;;;;;5027767;28;20519;-78
2022/03/18 06:53:09;;;;;;;16.20;3.47;;;;;;;;;;5034527;28;20018;-87
2022/03/18 06:55:35;;;;;;;10.90;2.40;;;;;;;;;;5013983;28;20121;-81
2022/03/18 06:58:01;;;;;;;14.30;3.47;;;;;;;;;;5015362;28;20108;-79
2022/03/18 07:00:26;;;;;;;13.00;2.70;;;;;;;;;;5014406;28;20373;-80
2022/03/18 07:02:51;;;;;;;18.33;2.50;;;;;;;;;;5015839;28;20053;-81
2022/03/18 07:05:16;;;;;;;16.50;2.65;;;;;;;;;;5031622;28;20021;-85
2022/03/18 07:07:41;;;;;;;15.55;2.70;;;;;;;;;;5026897;28;20026;-80
2022/03/18 07:10:07;;;;;;;11.10;2.70;;;;;;;;;;5017467;28;20121;-81
2022/03/18 07:12:33;;;;;;;17.42;2.50;;;;;;;;;;5027510;28;20038;-81
2022/03/18 07:14:58;;;;;;;9.82;2.13;;;;;;;;;;5022944;28;20183;-80
2022/03/18 07:18:23;;;;;;;15.50;2.78;;;;;;;;;;5029466;28;20022;-82
2022/03/18 07:20:18;;;;;;;15.38;2.60;;;;;;;;;;5027058;28;20057;-83
2022/03/18 07:22:43;;;;;;;18.35;3.42;;;;;;;;;;5035872;28;20010;-83
2022/03/18 07:25:09;;;;;;;14.68;2.55;;;;;;;;;;5039161;28;20018;-84
2022/03/18 07:27:34;;;;;;;20.25;3.97;;;;;;;;;;5039230;28;20030;-83
2022/03/18 07:30:00;;;;;;;11.73;2.63;;;;;;;;;;5034821;28;20049;-84
2022/03/18 07:32:25;;;;;;;10.52;2.83;;;;;;;;;;5030041;28;20025;-83
2022/03/18 07:34:51;;;;;;;13.60;3.75;;;;;;;;;;5028823;28;20076;-84
2022/03/18 07:37:16;;;;;;;13.68;2.63;;;;;;;;;;5033073;28;20056;-82
2022/03/18 07:39:41;;;;;;;21.08;3.05;;;;;;;;;;5025509;28;20117;-81
2022/03/18 07:42:07;;;;;;;16.10;3.50;;;;;;;;;;5036164;28;20018;-83
2022/03/18 07:44:34;;;;;;;16.15;2.80;;;;;;;;;;5049871;28;20067;-84
2022/03/18 07:47:00;;;;;;;11.90;2.47;;;;;;;;;;5047614;28;20017;-84
2022/03/18 07:49:25;;;;;;;19.55;3.10;;;;;;;;;;5052757;28;20081;-85
2022/03/18 07:51:51;;;;;;;15.30;3.55;;;;;;;;;;5056010;28;20020;-83
2022/03/18 07:54:16;;;;;;;14.40;3.28;;;;;;;;;;5044856;28;20100;-85
2022/03/18 07:56:41;;;;;;;10.45;3.10;;;;;;;;;;5027022;28;20037;-85
2022/03/18 07:59:07;;;;;;;16.70;3.38;;;;;;;;;;5017222;28;20029;-87
2022/03/18 08:01:33;;;;;;;12.00;3.25;;;;;;;;;;5017048;28;20050;-82
2022/03/18 08:03:58;;;;;;;21.20;2.83;;;;;;;;;;5011310;28;20022;-88
2022/03/18 08:06:23;;;;;;;18.67;3.20;;;;;;;;;;5033741;28;20014;-86
2022/03/18 08:08:49;;;;;;;16.63;2.75;;;;;;;;;;5013151;28;20091;-89
2022/03/18 08:11:15;;;;;;;12.23;2.90;;;;;;;;;;5032674;28;20029;-87
2022/03/18 08:13:41;;;;;;;19.73;2.90;;;;;;;;;;5018720;28;20029;-87
2022/03/18 08:16:07;;;;;;;10.93;3.22;;;;;;;;;;5016936;28;20074;-89
2022/03/18 08:18:32;;;;;;;13.73;3.30;;;;;;;;;;5014892;28;20049;-89
2022/03/18 08:20:58;;;;;;;7.97;2.50;;;;;;;;;;5016013;28;20022;-90
2022/03/18 08:23:23;;;;;;;16.10;4.60;;;;;;;;;;5015935;28;20018;-89
2022/03/18 08:25:49;;;;;;;11.07;3.08;;;;;;;;;;5012154;28;20025;-86
2022/03/18 08:28:14;;;;;;;14.93;3.20;;;;;;;;;;5026346;28;20033;-88
2022/03/18 08:30:40;;;;;;;12.40;2.72;;;;;;;;;;5014376;28;20058;-88
2022/03/18 08:33:05;;;;;;;16.23;3.42;;;;;;;;;;5014332;28;20026;-87
2022/03/18 08:35:30;;;;;;;10.75;2.55;;;;;;;;;;5014895;28;20036;-89
2022/03/18 08:37:59;;;;;;;15.25;3.92;;;;;;;;;;5014304;28;20026;-87
2022/03/18 08:40:26;;;;;;;18.40;3.45;;;;;;;;;;5012812;28;20428;-91
2022/03/18 08:42:51;;;;;;;15.85;3.33;;;;;;;;;;5026438;28;20025;-91
2022/03/18 08:45:17;;;;;;;16.73;2.78;;;;;;;;;;5015554;28;20489;-92
2022/03/18 08:47:43;;;;;;;15.32;3.58;;;;;;;;;;5012260;28;20493;-90
2022/03/18 08:50:09;;;;;;;17.52;3.40;;;;;;;;;;5012830;28;20033;-89
2022/03/18 08:52:34;;;;;;;18.38;3.40;;;;;;;;;;5013133;28;20014;-90
2022/03/18 08:54:59;;;;;;;17.08;3.20;;;;;;;;;;5012699;28;20026;-89
2022/03/18 08:57:28;;;;;;;19.30;3.38;;;;;;;;;;5013323;28;20029;-91
2022/03/18 08:59:53;;;;;;;;;;;;;;;;;;5018745;28;20028;-89
2022/03/18 09:02:18;;;;;;;15.85;2.53;;;;;;;;;;5029252;28;19905;-90
2022/03/18 09:04:43;;;;;;;15.80;3.58;;;;;;;;;;5033344;28;20473;-90
2022/03/18 09:07:09;;;;;;;15.57;3.60;;;;;;;;;;5033770;28;20259;-88
2022/03/18 09:09:34;;;;;;;12.57;2.85;;;;;;;;;;5034798;28;20477;-92
2022/03/18 09:11:59;;;;;;;7.13;2.10;;;;;;;;;;5035602;28;20307;-90
2022/03/18 09:14:24;;;;;;;12.98;3.47;;;;;;;;;;5017961;28;20068;-90
2022/03/18 09:16:49;;;;;;;16.70;3.47;;;;;;;;;;5027828;28;20026;-88
2022/03/18 09:19:15;;;;;;;19.77;3.45;;;;;;;;;;5012696;28;20053;-85
2022/03/18 09:21:40;;;;;;;17.65;3.30;;;;;;;;;;5011410;28;20485;-88
2022/03/18 09:24:06;;;;;;;13.25;3.15;;;;;;;;;;5011515;28;20014;-87
2022/03/18 09:26:31;;;;;;;13.25;2.95;;;;;;;;;;5011310;28;20018;-87
2022/03/18 09:28:56;;;;;;;11.68;2.80;;;;;;;;;;5013231;28;20029;-88
2022/03/18 09:31:21;;;;;;;15.57;2.60;;;;;;;;;;5012624;28;20029;-88
2022/03/18 09:33:48;;;;;;;14.90;2.65;;;;;;;;;;5023053;28;20025;-88
2022/03/18 09:36:18;;;;;;;13.93;2.63;;;;;;;;;;5033702;28;20097;-87
2022/03/18 09:38:44;;;;;;;15.18;2.50;;;;;;;;;;5035875;28;20020;-87
2022/03/18 09:41:09;;;;;;;17.73;3.38;;;;;;;;;;5033363;28;20025;-85
2022/03/18 09:43:36;;;;;;;17.60;3.40;;;;;;;;;;5032045;28;20010;-85
2022/03/18 09:46:05;;;;;;;14.95;3.15;;;;;;;;;;5032173;28;20022;-85
2022/03/18 09:48:31;;;;;;;10.65;2.92;;;;;;;;;;5024390;28;20102;-86
2022/03/18 09:50:56;;;;;;;15.52;2.55;;;;;;;;;;5023392;28;20052;-84
2022/03/18 09:53:21;;;;;;;12.48;3.10;;;;;;;;;;5028499;28;20469;-86
2022/03/18 09:55:48;;;;;;;19.73;3.55;;;;;;;;;;5010953;28;20022;-86
2022/03/18 09:58:14;;;;;;;19.17;3.35;;;;;;;;;;5015814;28;20029;-87
2022/03/18 10:00:39;;;;;;;12.02;3.25;;;;;;;;;;5015750;28;20022;-87
2022/03/18 10:03:08;;;;;;;15.77;2.83;;;;;;;;;;5015734;28;20024;-87
2022/03/18 10:05:34;;;;;;;12.50;2.78;;;;;;;;;;5021784;28;20028;-88
2022/03/18 10:07:59;;;;;;;15.40;3.60;;;;;;;;;;5029743;28;20389;-88
2022/03/18 10:10:26;;;;;;;17.10;3.28;;;;;;;;;;5036764;28;20025;-87
2022/03/18 10:12:55;;;;;;;15.93;3.22;;;;;;;;;;5036637;28;20493;-88
2022/03/18 10:15:26;;;;;;;14.07;2.97;;;;;;;;;;5036342;28;20036;-88
2022/03/18 10:17:53;;;;;;;17.02;3.40;;;;;;;;;;5036542;28;20017;-87
2022/03/18 10:20:27;;;;;;;11.95;3.55;;;;;;;;;;5035252;28;20048;-88
2022/03/18 10:22:55;;;;;;;16.70;4.40;;;;;;;;;;5006061;28;20445;-88
2022/03/18 10:25:33;;;;;;;20.98;4.68;;;;;;;;;;5017924;28;20026;-85
2022/03/18 10:27:58;;;;;;;15.18;3.83;;;;;;;;;;5014955;28;20068;-88
2022/03/18 10:30:24;;;;;;;18.83;4.75;;;;;;;;;;5015059;28;20030;-88
2022/03/18 10:32:50;;;;;;;15.85;3.70;;;;;;;;;;5015124;28;20069;-88
2022/03/18 10:38:12;;;;;;;17.08;3.85;;;;;;;;;;5016438;28;20049;-87
2022/03/18 10:40:37;;;;;;;15.05;4.85;;;;;;;;;;5014580;28;20030;-88
2022/03/18 10:43:04;;;;;;;13.35;3.42;;;;;;;;;;5029947;28;20072;-86
2022/03/18 10:45:29;;;;;;;13.95;4.10;;;;;;;;;;5035892;28;20488;-88
2022/03/18 10:48:09;;;;;;;16.13;4.03;;;;;;;;;;5033843;28;20033;-83
2022/03/18 10:50:34;;;;;;;15.35;5.30;;;;;;;;;;5034750;28;20021;-85
2022/03/18 10:53:01;;;;;;;12.88;4.35;;;;;;;;;;5034833;28;20586;-85
2022/03/18 10:55:37;;;;;;;15.77;4.93;;;;;;;;;;5016574;28;20029;-86
2022/03/18 10:58:07;;;;;;;16.95;5.95;;;;;;;;;;5014318;28;20026;-85
2022/03/18 11:00:34;;;;;;;21.83;5.47;;;;;;;;;;5019103;28;20010;-86
2022/03/18 11:03:01;;;;;;;14.77;5.70;;;;;;;;;;5016671;28;20018;-86
2022/03/18 11:05:27;;;;;;;15.85;5.95;;;;;;;;;;5015653;28;20110;-85
2022/03/18 11:07:53;;;;;;;18.77;5.20;;;;;;;;;;5014567;28;20549;-86
2022/03/18 11:13:04;;;;;;;17.58;5.13;;;;;;;;;;5018335;28;20032;-86
2022/03/18 11:15:30;;;;;;;12.70;5.05;;;;;;;;;;5022307;28;20117;-85
2022/03/18 11:17:56;;;;;;;17.20;5.25;;;;;;;;;;5029045;28;20109;-86
2022/03/18 11:20:24;;;;;;;14.20;5.00;;;;;;;;;;5035367;28;20041;-86
2022/03/18 11:22:49;;;;;;;15.80;5.40;;;;;;;;;;5033501;28;20037;-86
2022/03/18 11:25:15;;;;;;;12.80;4.60;;;;;;;;;;5033431;28;20369;-86
2022/03/18 11:27:44;;;;;;;11.75;4.28;;;;;;;;;;5035545;28;20037;-85
2022/03/18 11:30:21;;;;;;;10.82;4.80;;;;;;;;;;5037456;28;20025;-85
2022/03/18 11:33:05;;;;;;;13.55;3.88;;;;;;;;;;5022671;28;20123;-85
2022/03/18 11:35:49;;;;;;;9.20;3.38;;;;;;;;;;5024998;28;20026;-85
2022/03/18 11:38:17;;;;;;;14.05;5.55;;;;;;;;;;5034255;28;20033;-86
2022/03/18 11:40:53;;;;;;;17.73;6.18;;;;;;;;;;5035490;28;20025;-84
2022/03/18 11:43:34;;;;;;;15.93;6.53;;;;;;;;;;5033538;28;20033;-85
2022/03/18 11:46:11;;;;;;;23.45;9.07;;;;;;;;;;5035178;28;20022;-85
2022/03/18 11:48:37;;;;;;;66.32;28.02;;;;;;;;;;5029853;28;20017;-86
2022/03/18 11:51:21;;;;;;;27.70;10.60;;;;;;;;;;5022338;28;20075;-84
2022/03/18 11:53:51;;;;;;;21.95;9.10;;;;;;;;;;4995057;28;20030;-85
2022/03/18 11:56:17;;;;;;;15.05;5.28;;;;;;;;;;4994593;28;20072;-84
2022/03/18 11:58:44;;;;;;;17.38;6.13;;;;;;;;;;4994699;28;20053;-85
2022/03/18 12:01:29;;;;;;;12.68;5.45;;;;;;;;;;4993224;28;20022;-86
2022/03/18 12:03:55;;;;;;;15.57;4.40;;;;;;;;;;4992747;28;20018;-86
2022/03/18 12:06:20;;;;;;;13.90;5.50;;;;;;;;;;4994333;28;20037;-86
2022/03/18 12:08:51;;;;;;;14.55;5.68;;;;;;;;;;5025287;28;20013;-86
2022/03/18 12:11:46;;;;;;;21.60;8.23;;;;;;;;;;5032321;28;20159;-85
2022/03/18 12:14:11;;;;;;;14.15;5.55;;;;;;;;;;5020074;28;20033;-83
2022/03/18 12:16:36;;;;;;;16.40;6.38;;;;;;;;;;5035970;28;20385;-85
2022/03/18 12:19:09;;;;;;;15.82;4.60;;;;;;;;;;5034545;28;20488;-83
2022/03/18 12:21:36;;;;;;;12.32;4.32;;;;;;;;;;5020999;28;20020;-85
2022/03/18 12:24:06;;;;;;;11.35;3.50;;;;;;;;;;5025936;28;20033;-87
2022/03/18 12:26:31;;;;;;;12.18;4.10;;;;;;;;;;5035591;28;20021;-86
2022/03/18 12:28:56;;;;;;;15.65;4.32;;;;;;;;;;5035657;28;20358;-85
2022/03/18 12:31:22;;;;;;;13.33;4.37;;;;;;;;;;5034990;28;20531;-84
2022/03/18 12:33:55;;;;;;;11.50;3.90;;;;;;;;;;5040485;28;20279;-83
2022/03/18 12:36:29;;;;;;;14.32;4.55;;;;;;;;;;5040108;28;20025;-84
2022/03/18 12:39:04;;;;;;;11.55;3.55;;;;;;;;;;5029159;28;20021;-85
2022/03/18 12:41:29;;;;;;;14.23;3.78;;;;;;;;;;5043568;28;20132;-81
2022/03/18 12:43:54;;;;;;;13.45;3.95;;;;;;;;;;5046286;28;20021;-82
2022/03/18 12:46:19;;;;;;;10.27;3.90;;;;;;;;;;5047995;28;20083;-83
2022/03/18 12:48:46;;;;;;;16.45;4.80;;;;;;;;;;5023471;28;20053;-85
2022/03/18 12:51:12;;;;;;;12.65;3.97;;;;;;;;;;5023769;28;20025;-84
2022/03/18 12:53:37;;;;;;;12.35;3.40;;;;;;;;;;5012228;28;20022;-85
2022/03/18 12:56:03;;;;;;;14.07;4.10;;;;;;;;;;5020923;28;20017;-84
2022/03/18 12:58:35;;;;;;;16.45;6.78;;;;;;;;;;5015087;28;20014;-84
2022/03/18 13:01:01;;;;;;;12.55;4.10;;;;;;;;;;5014579;28;20129;-83
2022/03/18 13:03:30;;;;;;;20.55;8.18;;;;;;;;;;5023881;28;20025;-81
2022/03/18 13:06:06;;;;;;;18.80;7.75;;;;;;;;;;5023821;28;20032;-87
2022/03/18 13:08:33;;;;;;;22.02;7.15;;;;;;;;;;5022487;28;20048;-86
2022/03/18 13:10:59;;;;;;;23.10;10.20;;;;;;;;;;5039651;28;20033;-84
2022/03/18 13:13:27;;;;;;;33.63;16.00;;;;;;;;;;5037392;28;20465;-86
2022/03/18 13:15:57;;;;;;;14.45;5.55;;;;;;;;;;5018615;28;20101;-84
2022/03/18 13:18:22;;;;;;;16.05;4.57;;;;;;;;;;5018411;28;20054;-85
2022/03/18 13:20:48;;;;;;;34.83;16.80;;;;;;;;;;5015429;28;20018;-86
2022/03/18 13:23:16;;;;;;;20.83;8.93;;;;;;;;;;5013573;28;20556;-87
2022/03/18 13:25:42;;;;;;;19.77;7.63;;;;;;;;;;5017209;28;20113;-86
2022/03/18 13:28:08;;;;;;;12.27;3.83;;;;;;;;;;4995145;28;20461;-86
2022/03/18 13:33:18;;;;;;;14.55;4.07;;;;;;;;;;4993092;28;20025;-87
2022/03/18 13:35:45;;;;;;;10.77;3.60;;;;;;;;;;4993844;28;20022;-86
2022/03/18 13:38:12;;;;;;;15.48;6.43;;;;;;;;;;4993076;28;20056;-85
2022/03/18 13:40:38;;;;;;;7.57;3.17;;;;;;;;;;5000012;28;20018;-88
2022/03/18 13:43:07;;;;;;;9.95;2.97;;;;;;;;;;5019816;28;20021;-87
2022/03/18 13:45:33;;;;;;;13.43;3.83;;;;;;;;;;5032801;28;20022;-86
2022/03/18 13:47:59;;;;;;;9.07;3.40;;;;;;;;;;5017967;28;20050;-87
2022/03/18 13:50:25;;;;;;;9.07;3.40;;;;;;;;;;5013768;28;20096;-86
2022/03/18 13:52:50;;;;;;;10.18;3.40;;;;;;;;;;5008278;28;20021;-86
2022/03/18 13:55:30;;;;;;;8.90;3.08;;;;;;;;;;5011276;28;20393;-86
2022/03/18 13:57:55;;;;;;;9.65;3.13;;;;;;;;;;5017648;28;20072;-85
2022/03/18 14:00:28;;;;;;;11.02;3.00;;;;;;;;;;5014041;28;20018;-84
2022/03/18 14:03:02;;;;;;;12.25;3.88;;;;;;;;;;5010630;28;20101;-86
2022/03/18 14:05:27;;;;;;;10.15;3.15;;;;;;;;;;5012758;28;20280;-86
2022/03/18 14:07:52;;;;;;;12.25;3.22;;;;;;;;;;5011926;28;20434;-87
2022/03/18 14:10:19;;;;;;;8.27;2.50;;;;;;;;;;5010387;28;20064;-86
2022/03/18 14:13:04;;;;;;;9.13;2.90;;;;;;;;;;5014532;28;20026;-87
2022/03/18 14:15:34;;;;;;;6.05;2.40;;;;;;;;;;5033790;28;20083;-86
2022/03/18 14:17:59;;;;;;;7.72;2.67;;;;;;;;;;5042960;28;20060;-84
2022/03/18 14:20:28;;;;;;;11.25;2.63;;;;;;;;;;5017867;28;20026;-84
2022/03/18 14:22:55;;;;;;;9.18;2.08;;;;;;;;;;5021947;28;20022;-84
2022/03/18 14:25:21;;;;;;;11.15;2.70;;;;;;;;;;5017791;28;20025;-85
2022/03/18 14:27:47;;;;;;;7.75;2.17;;;;;;;;;;5001513;28;20026;-85
2022/03/18 14:30:13;;;;;;;8.93;1.95;;;;;;;;;;5027414;28;20018;-83
2022/03/18 14:32:40;;;;;;;7.93;2.60;;;;;;;;;;5034167;28;20044;-86
2022/03/18 14:35:05;;;;;;;10.13;3.33;;;;;;;;;;5034176;28;20109;-86
2022/03/18 14:37:32;;;;;;;10.63;2.40;;;;;;;;;;5032053;28;20450;-84
2022/03/18 14:39:58;;;;;;;9.02;2.30;;;;;;;;;;5030961;28;20492;-85
2022/03/18 14:42:23;;;;;;;12.60;2.70;;;;;;;;;;5032115;28;20017;-85
2022/03/18 14:44:49;;;;;;;11.55;3.05;;;;;;;;;;5036716;28;20592;-85
2022/03/18 14:47:14;;;;;;;10.15;2.70;;;;;;;;;;5025307;28;20384;-84
2022/03/18 14:49:39;;;;;;;10.85;2.78;;;;;;;;;;5027841;28;20068;-84
2022/03/18 14:52:05;;;;;;;10.60;2.45;;;;;;;;;;5030270;28;20028;-83